Time;durP1;ratioP1;P1;durP2;ratioP2;P2;SDS_P1;SDS_P2;PMS_P1;PMS_P2;Temp;Humidity;BMP_temperature;BMP_pressure;BME280_temperature;BME280_humidity;BME280_pressure;Samples;Min_cycle;Max_cycle;Signal;HPM_P1;HPM_P2
2021/07/17 00:00:24;;;;;;;17.43;8.30;;;;;;;21.52;58.89;98740.18;125619;1096;102938;-69
2021/07/17 00:03:12;;;;;;;15.67;7.73;;;;;;;21.51;59.07;98739.36;125601;1096;103058;-69
2021/07/17 00:05:41;;;;;;;16.97;7.87;;;;;;;21.53;59.02;98733.73;125662;1095;102927;-69
2021/07/17 00:08:10;;;;;;;18.50;8.63;;;;;;;21.52;59.43;98726.66;125616;1096;102916;-69
2021/07/17 00:10:41;;;;;;;17.70;9.00;;;;;;;21.52;58.91;98732.06;125628;1096;103027;-69
2021/07/17 00:13:09;;;;;;;22.33;9.67;;;;;;;21.51;59.54;98733.95;125649;1096;103110;-68
2021/07/17 00:15:38;;;;;;;18.40;9.17;;;;;;;21.50;59.23;98734.97;125613;1095;102911;-69
2021/07/17 00:18:07;;;;;;;18.67;8.97;;;;;;;21.51;59.51;98736.66;125615;1094;103364;-69
2021/07/17 00:20:35;;;;;;;17.53;9.03;;;;;;;21.51;59.62;98741.20;125551;1095;103094;-68
2021/07/17 00:23:04;;;;;;;17.87;8.97;;;;;;;21.50;59.24;98737.68;125652;1095;103007;-70
2021/07/17 00:25:33;;;;;;;19.03;9.00;;;;;;;21.49;59.21;98733.30;125609;1094;102916;-69
2021/07/17 00:28:01;;;;;;;20.37;9.47;;;;;;;21.48;59.77;98738.88;125615;1094;102911;-69
2021/07/17 00:30:30;;;;;;;21.73;10.00;;;;;;;21.45;59.86;98737.41;125613;1096;103132;-68
2021/07/17 00:32:58;;;;;;;18.20;9.63;;;;;;;21.43;59.85;98736.76;125642;1095;103064;-69
2021/07/17 00:35:27;;;;;;;21.57;9.13;;;;;;;21.45;59.72;98737.41;125629;1094;103041;-69
2021/07/17 00:37:56;;;;;;;20.87;9.50;;;;;;;21.45;59.92;98741.97;125674;1096;103021;-69
2021/07/17 00:40:24;;;;;;;20.90;9.00;;;;;;;21.42;59.78;98726.97;125589;1095;103007;-70
2021/07/17 00:42:53;;;;;;;21.10;9.87;;;;;;;21.40;60.16;98727.14;125724;1096;103480;-68
2021/07/17 00:45:22;;;;;;;21.03;9.30;;;;;;;21.39;60.18;98725.49;125645;1095;102918;-69
2021/07/17 00:47:51;;;;;;;20.33;10.10;;;;;;;21.38;59.99;98731.08;125621;1095;102916;-68
2021/07/17 00:50:22;;;;;;;18.83;9.63;;;;;;;21.34;60.28;98727.92;126170;1096;103007;-69
2021/07/17 00:52:50;;;;;;;20.27;10.30;;;;;;;21.33;60.26;98731.66;125654;1096;103099;-68
2021/07/17 00:55:22;;;;;;;21.70;9.40;;;;;;;21.31;60.10;98730.16;125631;1095;102938;-68
2021/07/17 00:57:52;;;;;;;17.03;8.90;;;;;;;21.30;60.37;98725.77;125651;1094;102920;-69
2021/07/17 01:00:22;;;;;;;21.83;9.33;;;;;;;21.26;60.59;98725.33;126097;1094;103005;-68
2021/07/17 01:02:58;;;;;;;19.40;10.30;;;;;;;21.26;60.71;98733.44;125747;1095;103464;-69
2021/07/17 01:05:27;;;;;;;18.63;9.40;;;;;;;21.23;60.62;98728.41;125547;1095;102984;-69
2021/07/17 01:07:57;;;;;;;21.90;9.90;;;;;;;21.17;60.81;98742.68;125685;1096;103015;-69
2021/07/17 01:10:27;;;;;;;18.53;9.67;;;;;;;21.14;60.92;98732.23;125678;1097;102924;-69
2021/07/17 01:12:56;;;;;;;21.83;10.67;;;;;;;21.14;60.97;98745.76;125749;1095;103442;-69
2021/07/17 01:15:25;;;;;;;20.40;10.50;;;;;;;21.12;60.99;98746.78;125634;1095;102982;-69
2021/07/17 01:17:52;;;;;;;19.77;9.90;;;;;;;21.14;61.25;98743.05;125593;1096;103569;-69
2021/07/17 01:20:22;;;;;;;20.27;9.47;;;;;;;21.12;61.33;98737.84;125612;1096;103034;-69
2021/07/17 01:22:51;;;;;;;22.20;9.20;;;;;;;21.09;60.63;98733.64;125660;1096;102917;-70
2021/07/17 01:25:26;;;;;;;19.97;9.83;;;;;;;21.08;61.12;98734.66;125693;1096;102939;-69
2021/07/17 01:27:57;;;;;;;20.83;10.20;;;;;;;21.04;61.36;98735.23;125635;1094;103188;-69
2021/07/17 01:30:33;;;;;;;24.43;10.50;;;;;;;21.00;61.54;98733.94;125648;1097;103086;-67
2021/07/17 01:33:02;;;;;;;20.40;10.10;;;;;;;21.00;61.44;98734.75;125638;1094;103031;-68
2021/07/17 01:35:31;;;;;;;21.27;10.93;;;;;;;21.00;61.39;98723.94;125696;1097;102920;-68
2021/07/17 01:37:59;;;;;;;21.13;10.30;;;;;;;21.02;61.45;98721.89;125670;1096;102936;-69
2021/07/17 01:40:28;;;;;;;19.67;10.17;;;;;;;21.04;61.46;98722.55;125668;1097;103061;-70
2021/07/17 01:42:58;;;;;;;23.87;10.83;;;;;;;21.04;61.22;98727.13;125604;1097;103351;-69
2021/07/17 01:45:41;;;;;;;21.97;11.83;;;;;;;21.03;61.72;98711.93;125682;1096;102956;-69
2021/07/17 01:48:11;;;;;;;22.10;11.88;;;;;;;21.03;61.91;98710.05;125680;1096;103033;-70
2021/07/17 01:50:42;;;;;;;24.43;11.90;;;;;;;21.06;61.70;98714.26;125703;1097;103380;-69
2021/07/17 01:53:13;;;;;;;23.93;12.47;;;;;;;21.06;62.13;98703.45;125660;1097;102994;-69
2021/07/17 01:55:42;;;;;;;25.73;11.87;;;;;;;21.06;61.70;98712.38;125635;1096;102988;-69
2021/07/17 01:58:11;;;;;;;22.80;12.77;;;;;;;21.07;62.14;98697.83;125672;1094;103015;-68
2021/07/17 02:00:40;;;;;;;22.03;11.77;;;;;;;21.09;62.44;98695.78;125698;1096;103004;-68
2021/07/17 02:03:10;;;;;;;23.17;12.70;;;;;;;21.10;62.41;98705.57;125698;1093;103009;-68
2021/07/17 02:05:39;;;;;;;23.17;12.50;;;;;;;21.12;62.65;98703.52;125682;1093;103065;-68
2021/07/17 02:08:13;;;;;;;23.57;13.27;;;;;;;21.15;62.39;98693.35;125631;1093;102936;-68
2021/07/17 02:10:41;;;;;;;24.57;13.73;;;;;;;21.16;62.54;98686.91;125696;1093;103007;-69
2021/07/17 02:13:13;;;;;;;23.17;13.27;;;;;;;21.18;62.73;98693.83;125631;1093;103109;-70
2021/07/17 02:15:45;;;;;;;26.50;13.93;;;;;;;21.19;62.71;98694.66;125683;1093;103038;-70
2021/07/17 02:18:23;;;;;;;24.58;14.80;;;;;;;21.19;62.89;98690.09;125675;1093;103035;-69
2021/07/17 02:20:52;;;;;;;25.10;14.30;;;;;;;21.21;62.91;98696.13;125695;1093;103012;-69
2021/07/17 02:23:20;;;;;;;26.03;14.60;;;;;;;21.23;63.03;98690.55;125724;1093;103419;-71
2021/07/17 02:25:49;;;;;;;26.10;13.80;;;;;;;21.24;63.01;98700.33;125619;1093;103065;-69
2021/07/17 02:28:17;;;;;;;25.47;14.30;;;;;;;21.25;62.82;98710.95;125632;1093;102913;-69
2021/07/17 02:30:47;;;;;;;26.93;14.10;;;;;;;21.26;63.20;98707.22;125929;1092;103166;-70
2021/07/17 02:33:16;;;;;;;23.97;14.23;;;;;;;21.27;63.39;98703.48;125582;1092;103085;-69
2021/07/17 02:35:45;;;;;;;24.87;14.63;;;;;;;21.27;63.32;98700.78;125695;1093;103004;-70
2021/07/17 02:38:15;;;;;;;24.33;14.03;;;;;;;21.28;63.32;98707.05;125647;1095;102938;-68
2021/07/17 02:40:45;;;;;;;26.37;14.70;;;;;;;21.29;63.22;98711.42;125620;1093;103057;-69
2021/07/17 02:43:13;;;;;;;27.00;14.40;;;;;;;21.30;63.51;98704.98;125630;1092;103056;-70
2021/07/17 02:45:41;;;;;;;27.70;14.90;;;;;;;21.31;63.66;98711.22;125624;1093;102912;-68
2021/07/17 02:48:10;;;;;;;24.03;14.00;;;;;;;21.32;63.78;98710.19;125646;1093;102938;-69
2021/07/17 02:50:38;;;;;;;23.70;14.17;;;;;;;21.33;63.80;98714.58;125610;1093;103007;-71
2021/07/17 02:53:07;;;;;;;25.67;14.43;;;;;;;21.34;63.71;98710.84;125647;1093;102916;-69
2021/07/17 02:55:36;;;;;;;25.00;14.73;;;;;;;21.34;63.85;98708.99;125672;1092;103010;-68
2021/07/17 02:58:04;;;;;;;27.17;15.20;;;;;;;21.34;63.88;98706.29;125615;1094;102991;-69
2021/07/17 03:00:34;;;;;;;24.83;14.87;;;;;;;21.35;63.55;98707.11;125623;1094;102916;-69
2021/07/17 03:03:03;;;;;;;29.17;15.17;;;;;;;21.34;64.24;98705.44;125584;1094;103070;-69
2021/07/17 03:05:32;;;;;;;26.23;14.13;;;;;;;21.34;64.36;98708.99;125670;1096;103042;-68
2021/07/17 03:08:01;;;;;;;23.23;14.03;;;;;;;21.35;64.01;98701.70;125617;1095;103000;-68
2021/07/17 03:10:29;;;;;;;26.87;14.13;;;;;;;21.35;64.18;98705.26;126100;1095;103049;-68
2021/07/17 03:12:58;;;;;;;25.13;14.50;;;;;;;21.36;63.90;98706.94;125634;1094;103012;-69
2021/07/17 03:15:26;;;;;;;24.13;15.27;;;;;;;21.36;64.39;98712.34;125618;1093;102916;-69
2021/07/17 03:17:55;;;;;;;23.03;13.93;;;;;;;21.37;64.24;98718.58;125629;1095;102948;-69
2021/07/17 03:20:23;;;;;;;26.77;14.50;;;;;;;21.37;64.24;98716.73;125600;1095;102922;-68
2021/07/17 03:22:53;;;;;;;23.83;14.30;;;;;;;21.38;64.55;98717.55;125578;1096;103033;-71
2021/07/17 03:25:22;;;;;;;24.20;13.73;;;;;;;21.38;64.84;98715.70;125678;1093;103008;-71
2021/07/17 03:27:50;;;;;;;26.27;14.03;;;;;;;21.38;65.18;98721.11;125630;1092;103364;-69
2021/07/17 03:30:18;;;;;;;25.03;14.57;;;;;;;21.41;64.87;98718.00;125665;1092;102909;-70
2021/07/17 03:32:47;;;;;;;25.17;14.60;;;;;;;21.41;64.88;98725.29;125630;1093;103047;-69
2021/07/17 03:35:16;;;;;;;26.40;14.43;;;;;;;21.40;64.81;98732.55;125594;1093;102916;-70
2021/07/17 03:37:44;;;;;;;24.67;14.40;;;;;;;21.42;65.16;98722.38;125632;1093;102942;-68
2021/07/17 03:40:13;;;;;;;27.00;14.43;;;;;;;21.41;64.55;98722.58;125648;1092;103432;-68
2021/07/17 03:42:42;;;;;;;24.67;15.50;;;;;;;21.41;64.95;98718.00;125637;1095;102974;-75
2021/07/17 03:45:10;;;;;;;24.30;14.70;;;;;;;21.40;65.06;98720.91;125724;1093;103020;-71
2021/07/17 03:47:39;;;;;;;28.60;15.80;;;;;;;21.37;64.97;98718.58;125574;1093;103161;-69
2021/07/17 03:50:08;;;;;;;30.03;15.10;;;;;;;21.34;65.00;98714.41;125684;1093;102936;-70
2021/07/17 03:52:36;;;;;;;25.57;14.80;;;;;;;21.35;65.16;98712.52;125670;1096;103065;-68
2021/07/17 03:55:05;;;;;;;29.77;15.60;;;;;;;21.33;65.24;98711.88;125663;1093;102916;-69
2021/07/17 03:57:34;;;;;;;31.73;14.67;;;;;;;21.32;65.21;98721.87;125705;1093;103004;-68
2021/07/17 04:00:08;;;;;;;24.60;14.17;;;;;;;21.31;65.11;98720.19;125588;1093;103415;-69
2021/07/17 04:02:42;;;;;;;25.80;14.77;;;;;;;21.33;65.40;98711.88;126066;1093;102955;-69
2021/07/17 04:05:14;;;;;;;25.33;15.03;;;;;;;21.35;65.42;98717.93;125638;1093;103091;-69
2021/07/17 04:07:43;;;;;;;24.80;14.35;;;;;;;21.37;65.58;98718.58;125675;1095;103428;-69
2021/07/17 04:10:13;;;;;;;24.50;15.00;;;;;;;21.39;65.45;98716.52;125629;1093;102938;-68
2021/07/17 04:12:42;;;;;;;25.77;14.73;;;;;;;21.40;65.66;98721.73;125618;1093;102916;-69
2021/07/17 04:15:12;;;;;;;27.37;15.33;;;;;;;21.43;65.58;98723.23;125672;1093;102911;-72
2021/07/17 04:17:41;;;;;;;26.47;15.10;;;;;;;21.43;65.59;98720.53;125673;1093;103052;-69
2021/07/17 04:20:11;;;;;;;27.67;14.97;;;;;;;21.45;65.97;98720.32;125656;1093;102939;-69
2021/07/17 04:22:40;;;;;;;26.13;15.17;;;;;;;21.46;65.99;98722.00;125647;1093;103019;-69
2021/07/17 04:25:11;;;;;;;26.50;16.50;;;;;;;21.47;65.80;98726.38;125622;1093;103159;-68
2021/07/17 04:27:41;;;;;;;29.00;16.90;;;;;;;21.45;65.49;98725.73;125653;1096;102948;-69
2021/07/17 04:30:11;;;;;;;33.80;15.80;;;;;;;21.43;66.05;98731.34;125686;1097;102918;-70
2021/07/17 04:32:40;;;;;;;26.33;15.30;;;;;;;21.45;66.21;98739.27;125679;1096;102924;-70
2021/07/17 04:35:09;;;;;;;26.20;14.93;;;;;;;21.45;66.31;98728.44;125647;1093;103138;-68
2021/07/17 04:37:38;;;;;;;25.53;14.67;;;;;;;21.44;66.55;98718.64;125650;1093;103422;-69
2021/07/17 04:40:08;;;;;;;28.53;15.90;;;;;;;21.45;66.09;98718.47;125668;1092;102919;-69
2021/07/17 04:42:36;;;;;;;31.40;17.20;;;;;;;21.47;66.28;98720.97;126617;1093;102903;-68
2021/07/17 04:45:05;;;;;;;26.57;16.10;;;;;;;21.46;66.22;98722.00;125616;1092;102916;-69
2021/07/17 04:47:35;;;;;;;26.47;15.17;;;;;;;21.45;66.31;98709.50;125680;1093;103032;-70
2021/07/17 04:50:05;;;;;;;28.37;15.67;;;;;;;21.45;66.34;98714.91;125670;1095;103134;-68
2021/07/17 04:52:33;;;;;;;26.83;15.50;;;;;;;21.47;66.77;98718.27;125640;1094;103076;-72
2021/07/17 04:55:02;;;;;;;25.97;15.90;;;;;;;21.46;66.36;98722.85;125623;1093;103066;-69
2021/07/17 04:57:30;;;;;;;25.27;15.53;;;;;;;21.48;66.43;98719.94;125671;1092;102994;-69
2021/07/17 04:59:59;;;;;;;26.23;14.33;;;;;;;21.50;66.81;98721.45;125651;1093;102944;-68
2021/07/17 05:02:27;;;;;;;24.83;15.33;;;;;;;21.52;66.55;98718.53;125602;1095;103039;-69
2021/07/17 05:04:56;;;;;;;28.00;16.13;;;;;;;21.55;66.63;98721.71;125637;1094;102926;-67
2021/07/17 05:07:24;;;;;;;28.17;16.33;;;;;;;21.59;66.64;98726.74;125647;1093;103098;-69
2021/07/17 05:09:52;;;;;;;25.73;15.43;;;;;;;21.60;66.89;98725.72;125634;1095;103029;-67
2021/07/17 05:12:20;;;;;;;25.93;14.53;;;;;;;21.61;67.03;98722.80;125606;1093;103002;-68
2021/07/17 05:14:49;;;;;;;25.17;15.17;;;;;;;21.63;66.79;98722.63;125642;1090;103022;-71
2021/07/17 05:17:18;;;;;;;23.30;14.00;;;;;;;21.69;66.89;98728.13;125594;1092;102948;-69
2021/07/17 05:19:46;;;;;;;23.55;14.20;;;;;;;21.73;67.06;98733.98;125535;1092;103040;-70
2021/07/17 05:22:14;;;;;;;28.57;16.83;;;;;;;21.79;67.27;98735.11;125713;1092;102997;-72
2021/07/17 05:24:43;;;;;;;28.93;16.37;;;;;;;21.78;67.07;98734.25;125652;1093;102978;-72
2021/07/17 05:27:12;;;;;;;26.17;15.00;;;;;;;21.80;67.42;98731.37;125630;1092;103080;-74
2021/07/17 05:29:40;;;;;;;27.13;15.87;;;;;;;21.84;67.30;98732.63;125704;1093;103012;-76
2021/07/17 05:32:09;;;;;;;25.37;14.53;;;;;;;21.89;67.21;98724.77;125653;1093;103005;-73
2021/07/17 05:34:38;;;;;;;23.50;13.57;;;;;;;21.95;67.45;98725.89;125675;1092;103033;-67
2021/07/17 05:37:08;;;;;;;25.33;15.07;;;;;;;22.01;67.36;98734.06;125634;1093;102913;-69
2021/07/17 05:39:37;;;;;;;23.77;14.73;;;;;;;22.09;67.43;98729.55;125603;1093;103073;-67
2021/07/17 05:42:06;;;;;;;27.27;15.13;;;;;;;22.17;67.24;98729.42;125637;1093;103065;-67
2021/07/17 05:44:34;;;;;;;25.63;15.53;;;;;;;22.24;67.16;98729.46;125681;1093;103034;-66
2021/07/17 05:47:03;;;;;;;25.33;15.37;;;;;;;22.30;67.17;98728.68;125637;1092;103035;-68
2021/07/17 05:49:32;;;;;;;26.20;15.07;;;;;;;22.37;67.50;98731.44;125687;1092;102921;-65
2021/07/17 05:52:00;;;;;;;27.07;15.50;;;;;;;22.41;67.64;98722.73;125571;1095;103047;-65
2021/07/17 05:54:29;;;;;;;24.53;13.67;;;;;;;22.43;67.59;98733.36;125626;1093;103047;-66
2021/07/17 05:56:58;;;;;;;29.97;15.20;;;;;;;22.47;67.34;98731.97;125609;1093;103038;-69
2021/07/17 05:59:27;;;;;;;27.97;14.60;;;;;;;22.51;67.50;98722.41;125679;1093;103031;-68
2021/07/17 06:01:55;;;;;;;26.43;14.77;;;;;;;22.57;67.85;98718.91;125655;1093;103138;-68
2021/07/17 06:04:25;;;;;;;25.93;14.67;;;;;;;22.62;67.65;98721.02;125639;1093;103009;-67
2021/07/17 06:06:53;;;;;;;25.80;14.27;;;;;;;22.70;67.64;98723.58;125624;1093;102995;-67
2021/07/17 06:09:22;;;;;;;25.47;15.10;;;;;;;22.76;67.54;98716.51;125615;1092;102913;-68
2021/07/17 06:11:51;;;;;;;27.90;15.00;;;;;;;22.83;67.75;98721.95;125612;1092;102913;-67
2021/07/17 06:14:21;;;;;;;24.53;15.90;;;;;;;22.89;67.49;98719.30;125616;1093;102915;-67
2021/07/17 06:16:49;;;;;;;25.40;14.43;;;;;;;22.95;67.70;98714.94;125558;1093;103052;-67
2021/07/17 06:19:18;;;;;;;25.23;13.50;;;;;;;23.02;67.80;98718.53;125687;1093;103158;-66
2021/07/17 06:21:46;;;;;;;26.50;14.50;;;;;;;23.09;67.51;98725.86;125603;1095;102994;-66
2021/07/17 06:24:15;;;;;;;28.80;14.53;;;;;;;23.16;68.08;98724.84;125649;1094;103039;-67
2021/07/17 06:26:43;;;;;;;24.83;14.57;;;;;;;23.25;67.76;98730.95;125638;1093;103158;-67
2021/07/17 06:29:11;;;;;;;25.20;13.37;;;;;;;23.35;68.01;98730.59;125618;1093;103118;-65
2021/07/17 06:31:40;;;;;;;25.30;14.30;;;;;;;23.46;68.18;98724.56;125678;1093;102932;-66
2021/07/17 06:34:09;;;;;;;24.13;14.80;;;;;;;23.53;67.61;98726.46;125631;1093;102995;-66
2021/07/17 06:36:38;;;;;;;22.57;13.53;;;;;;;23.58;68.08;98724.83;125671;1096;102928;-65
2021/07/17 06:39:07;;;;;;;24.90;13.45;;;;;;;23.65;67.84;98724.83;125685;1096;102913;-65
2021/07/17 06:41:35;;;;;;;24.65;13.75;;;;;;;23.73;67.87;98724.65;125621;1093;103058;-67
2021/07/17 06:44:04;;;;;;;22.97;12.47;;;;;;;23.83;67.88;98723.42;125654;1092;102886;-66
2021/07/17 06:46:33;;;;;;;25.60;13.90;;;;;;;23.94;68.00;98728.22;125641;1093;102998;-67
2021/07/17 06:49:02;;;;;;;24.97;13.83;;;;;;;24.07;67.86;98724.70;125625;1095;102942;-66
2021/07/17 06:51:31;;;;;;;23.17;14.17;;;;;;;24.22;68.07;98722.63;125659;1093;102992;-66
2021/07/17 06:54:01;;;;;;;22.70;14.30;;;;;;;24.41;67.90;98727.43;125621;1093;103047;-66
2021/07/17 06:56:29;;;;;;;21.70;13.03;;;;;;;24.57;67.37;98728.88;125684;1092;102916;-68
2021/07/17 06:58:57;;;;;;;24.77;14.30;;;;;;;24.73;67.91;98723.03;125601;1093;102937;-66
2021/07/17 07:01:26;;;;;;;22.07;13.10;;;;;;;24.96;68.00;98722.55;125639;1093;103003;-67
2021/07/17 07:03:56;;;;;;;21.87;12.97;;;;;;;25.37;67.28;98719.67;125628;1093;103009;-68
2021/07/17 07:06:26;;;;;;;24.47;13.00;;;;;;;25.98;66.65;98726.45;125555;1093;103063;-68
2021/07/17 07:08:54;;;;;;;22.70;13.20;;;;;;;26.68;66.62;98718.33;125634;1093;103428;-68
2021/07/17 07:11:23;;;;;;;21.87;12.40;;;;;;;27.26;66.70;98719.80;125631;1093;102943;-67
2021/07/17 07:13:51;;;;;;;22.47;13.27;;;;;;;27.77;66.72;98727.76;125708;1092;103068;-67
2021/07/17 07:16:19;;;;;;;23.47;12.80;;;;;;;28.21;66.83;98717.43;125630;1093;102989;-68
2021/07/17 07:18:48;;;;;;;19.47;11.17;;;;;;;28.65;66.90;98717.07;125587;1093;103014;-67
2021/07/17 07:21:16;;;;;;;19.90;12.53;;;;;;;29.04;66.69;98723.95;125648;1093;102937;-67
2021/07/17 07:23:45;;;;;;;22.17;12.30;;;;;;;29.52;66.77;98719.20;125632;1093;103437;-67
2021/07/17 07:26:13;;;;;;;20.07;11.50;;;;;;;30.09;66.07;98718.33;125630;1092;102926;-66
2021/07/17 07:28:41;;;;;;;21.10;11.93;;;;;;;30.57;65.92;98717.98;125599;1093;104464;-65
2021/07/17 07:31:11;;;;;;;21.40;11.93;;;;;;;30.93;65.63;98720.41;125568;1093;103047;-67
2021/07/17 07:33:40;;;;;;;21.00;11.75;;;;;;;31.36;65.49;98724.27;125637;1094;102991;-66
2021/07/17 07:36:08;;;;;;;21.10;12.43;;;;;;;31.70;65.31;98726.83;125619;1092;103068;-67
2021/07/17 07:38:37;;;;;;;18.75;11.25;;;;;;;31.93;64.92;98728.46;125636;1095;102921;-66
2021/07/17 07:41:05;;;;;;;17.50;10.47;;;;;;;32.32;64.61;98732.11;125614;1093;103002;-66
2021/07/17 07:43:33;;;;;;;18.63;10.93;;;;;;;32.64;64.74;98737.58;125573;1093;103057;-67
2021/07/17 07:46:02;;;;;;;20.23;10.90;;;;;;;32.90;64.19;98732.23;125648;1092;102926;-67
2021/07/17 07:48:30;;;;;;;20.80;12.03;;;;;;;33.17;64.13;98739.55;125607;1093;103028;-66
2021/07/17 07:51:00;;;;;;;21.40;11.97;;;;;;;33.37;63.81;98740.71;125638;1092;102952;-66
2021/07/17 07:53:29;;;;;;;19.90;11.30;;;;;;;33.73;63.21;98742.78;125623;1093;103161;-66
2021/07/17 07:55:59;;;;;;;18.97;10.40;;;;;;;34.13;62.81;98743.95;125604;1093;102929;-67
2021/07/17 07:58:30;;;;;;;21.57;11.13;;;;;;;34.90;62.06;98744.99;125583;1093;103068;-66
2021/07/17 08:00:58;;;;;;;19.57;11.10;;;;;;;35.57;61.98;98742.83;125571;1093;103019;-66
2021/07/17 08:03:27;;;;;;;17.90;10.50;;;;;;;36.12;61.07;98741.11;125629;1093;103044;-65
2021/07/17 08:05:58;;;;;;;17.83;9.73;;;;;;;36.42;61.18;98734.48;125627;1094;102916;-67
2021/07/17 08:08:28;;;;;;;19.03;10.37;;;;;;;36.82;61.10;98737.13;125608;1093;102948;-68
2021/07/17 08:10:59;;;;;;;19.13;10.40;;;;;;;37.20;60.68;98740.04;125675;1092;103067;-67
2021/07/17 08:13:29;;;;;;;21.80;10.30;;;;;;;37.76;60.17;98729.33;125575;1093;102913;-66
2021/07/17 08:16:01;;;;;;;18.03;10.13;;;;;;;38.41;59.80;98743.61;125637;1093;103081;-67
2021/07/17 08:18:31;;;;;;;18.03;9.83;;;;;;;38.85;58.68;98736.70;125616;1092;103074;-67
2021/07/17 08:21:00;;;;;;;18.00;10.33;;;;;;;39.28;58.63;98737.51;125676;1093;102904;-67
2021/07/17 08:23:29;;;;;;;18.43;11.17;;;;;;;39.55;57.85;98738.61;125622;1092;103515;-67
2021/07/17 08:25:57;;;;;;;18.97;10.50;;;;;;;40.05;58.04;98726.59;125610;1093;103059;-67
2021/07/17 08:28:26;;;;;;;18.17;10.10;;;;;;;40.43;56.58;98731.78;125626;1096;103099;-67
2021/07/17 08:30:54;;;;;;;20.90;10.13;;;;;;;40.76;56.52;98737.05;125625;1096;103074;-69
2021/07/17 08:33:24;;;;;;;17.90;9.80;;;;;;;41.16;55.84;98733.45;125615;1095;103036;-68
2021/07/17 08:35:52;;;;;;;16.73;9.50;;;;;;;41.37;54.87;98724.48;125626;1093;103152;-68
2021/07/17 08:38:22;;;;;;;19.40;10.23;;;;;;;41.45;54.43;98734.00;125621;1092;104720;-68
2021/07/17 08:40:56;;;;;;;16.53;9.27;;;;;;;41.65;53.78;98726.98;125685;1092;103029;-69
2021/07/17 08:43:26;;;;;;;16.87;9.80;;;;;;;41.67;52.76;98730.27;125625;1093;103012;-70
2021/07/17 08:45:56;;;;;;;16.47;9.90;;;;;;;41.46;52.19;98722.50;125647;1093;103061;-69
2021/07/17 08:48:26;;;;;;;15.70;9.60;;;;;;;41.34;51.66;98723.14;125633;1091;103066;-66
2021/07/17 08:50:58;;;;;;;17.23;9.60;;;;;;;41.31;51.32;98726.58;125605;1093;103001;-68
2021/07/17 08:53:28;;;;;;;16.53;9.63;;;;;;;41.36;50.64;98734.80;125642;1093;103057;-67
2021/07/17 08:56:00;;;;;;;18.57;10.27;;;;;;;41.18;49.92;98736.73;125627;1090;103414;-70
2021/07/17 08:58:28;;;;;;;20.83;9.73;;;;;;;40.85;49.77;98741.84;125571;1093;102941;-73
2021/07/17 09:01:00;;;;;;;18.73;10.20;;;;;;;40.52;49.06;98739.37;125627;1093;103061;-66
2021/07/17 09:03:30;;;;;;;18.63;10.47;;;;;;;40.40;48.73;98735.20;125550;1093;102945;-65
2021/07/17 09:06:01;;;;;;;22.20;9.93;;;;;;;40.41;48.33;98733.25;125597;1092;102995;-65
2021/07/17 09:08:31;;;;;;;18.10;9.90;;;;;;;40.48;47.89;98725.27;125570;1095;102935;-67
2021/07/17 09:11:01;;;;;;;22.33;10.77;;;;;;;40.46;47.59;98720.00;125718;1092;102917;-66
2021/07/17 09:13:37;;;;;;;17.67;9.33;;;;;;;40.45;47.15;98725.91;125555;1093;102913;-67
2021/07/17 09:16:12;;;;;;;20.63;9.33;;;;;;;40.42;46.90;98724.56;125628;1093;103010;-67
2021/07/17 09:18:47;;;;;;;17.63;9.27;;;;;;;40.49;46.43;98713.78;125643;1092;103050;-67
2021/07/17 09:21:27;;;;;;;19.20;9.60;;;;;;;40.61;45.76;98715.16;125642;1096;103428;-67
2021/07/17 09:24:01;;;;;;;18.93;9.77;;;;;;;40.69;44.98;98711.63;125658;1093;103015;-66
2021/07/17 09:26:34;;;;;;;17.03;10.17;;;;;;;40.68;44.81;98709.14;125624;1092;102997;-65
2021/07/17 09:29:12;;;;;;;18.97;10.10;;;;;;;40.14;44.92;98709.97;125744;1093;102935;-66
2021/07/17 09:31:50;;;;;;;19.27;10.20;;;;;;;40.29;44.92;98701.22;125605;1096;103126;-66
2021/07/17 09:34:23;;;;;;;19.33;10.07;;;;;;;40.24;44.34;98703.33;125660;1096;102923;-67
2021/07/17 09:37:01;;;;;;;19.07;9.43;;;;;;;40.22;43.73;98703.63;125620;1093;103070;-66
2021/07/17 09:39:31;;;;;;;18.10;9.33;;;;;;;40.16;43.54;98704.88;125652;1093;103068;-65
2021/07/17 09:42:06;;;;;;;16.47;9.03;;;;;;;39.92;42.96;98702.45;125670;1092;103025;-69
2021/07/17 09:44:36;;;;;;;19.80;9.10;;;;;;;39.59;43.25;98697.89;125636;1092;102940;-68
2021/07/17 09:47:17;;;;;;;20.97;9.57;;;;;;;39.57;43.32;98698.19;125649;1096;102916;-70
2021/07/17 09:49:47;;;;;;;19.43;8.90;;;;;;;39.40;42.54;98712.77;125839;1093;102970;-70
2021/07/17 09:52:21;;;;;;;24.50;9.90;;;;;;;39.14;42.65;98702.19;125682;1093;103031;-69
2021/07/17 09:55:12;;;;;;;19.20;9.43;;;;;;;38.96;42.00;98703.12;125679;1093;103000;-69
2021/07/17 09:57:43;;;;;;;16.03;9.10;;;;;;;38.57;42.63;98710.81;125657;1093;103031;-68
2021/07/17 10:00:15;;;;;;;21.83;8.73;;;;;;;38.63;42.38;98694.86;125702;1093;103039;-70
2021/07/17 10:02:56;;;;;;;18.70;8.35;;;;;;;38.62;42.17;98704.32;125679;1093;102910;-68
2021/07/17 10:05:39;;;;;;;16.57;8.80;;;;;;;38.54;42.03;98691.98;125656;1093;103225;-70
2021/07/17 10:08:13;;;;;;;16.73;9.27;;;;;;;38.32;42.07;98690.66;126318;1092;103034;-70
2021/07/17 10:10:46;;;;;;;17.33;8.70;;;;;;;38.01;41.69;98690.40;125626;1094;103001;-69
2021/07/17 10:13:27;;;;;;;19.95;9.70;;;;;;;37.65;41.27;98695.38;125613;1093;103065;-72
2021/07/17 10:15:58;;;;;;;20.70;9.15;;;;;;;37.24;41.36;98684.84;125644;1095;103064;-71
2021/07/17 10:18:27;;;;;;;21.10;9.67;;;;;;;36.71;40.94;98689.33;125652;1095;102916;-72
2021/07/17 10:20:57;;;;;;;23.00;8.80;;;;;;;36.36;40.89;98681.08;125640;1092;103418;-71
2021/07/17 10:23:28;;;;;;;19.30;8.50;;;;;;;35.95;40.93;98678.66;125681;1093;102916;-71
2021/07/17 10:25:58;;;;;;;23.23;9.67;;;;;;;35.77;41.27;98674.64;125642;1094;102911;-72
2021/07/17 10:28:27;;;;;;;18.53;8.97;;;;;;;35.54;40.96;98674.27;125643;1092;103128;-71
2021/07/17 10:30:59;;;;;;;23.00;9.47;;;;;;;35.22;41.09;98674.70;125678;1093;102943;-72
2021/07/17 10:33:31;;;;;;;19.18;9.58;;;;;;;34.97;40.67;98668.20;125673;1093;102919;-72
2021/07/17 10:36:11;;;;;;;18.57;9.77;;;;;;;34.61;40.83;98677.39;125665;1093;103027;-76
2021/07/17 10:38:44;;;;;;;19.73;9.97;;;;;;;34.17;40.30;98673.31;125694;1092;102911;-71
2021/07/17 10:41:20;;;;;;;21.50;10.20;;;;;;;33.81;40.59;98676.87;125639;1093;103079;-74
2021/07/17 10:43:51;;;;;;;18.80;10.30;;;;;;;33.53;40.74;98679.05;125654;1093;102906;-65
2021/07/17 10:47:06;;;;;;;21.98;11.03;;;;;;;33.37;40.85;98671.80;125620;1095;103105;-66
2021/07/17 10:49:39;;;;;;;22.83;11.07;;;;;;;33.32;40.94;98674.55;125707;1095;102913;-68
2021/07/17 10:52:08;;;;;;;21.95;11.80;;;;;;;33.18;40.88;98664.06;125642;1093;103079;-68
2021/07/17 10:54:40;;;;;;;19.47;10.13;;;;;;;33.02;41.08;98660.39;125616;1093;103059;-66
2021/07/17 10:57:10;;;;;;;25.37;10.73;;;;;;;32.88;41.23;98667.52;125678;1092;102948;-68
2021/07/17 10:59:42;;;;;;;20.30;10.23;;;;;;;32.71;41.09;98659.43;125633;1093;102916;-66
2021/07/17 11:02:11;;;;;;;20.87;10.77;;;;;;;32.53;41.45;98663.47;126471;1093;103076;-65
2021/07/17 11:04:44;;;;;;;17.63;10.17;;;;;;;32.30;41.39;98663.60;125927;1095;103006;-66
2021/07/17 11:07:17;;;;;;;21.97;10.80;;;;;;;32.16;41.39;98657.70;125667;1093;102911;-66
2021/07/17 11:09:58;;;;;;;19.53;10.33;;;;;;;32.03;41.60;98660.89;125634;1093;102910;-66
2021/07/17 11:12:49;;;;;;;22.43;10.00;;;;;;;31.91;41.39;98650.08;125656;1092;102938;-65
2021/07/17 11:15:18;;;;;;;25.53;9.90;;;;;;;31.79;41.60;98650.27;125680;1091;102917;-67
2021/07/17 11:17:51;;;;;;;21.00;9.83;;;;;;;31.70;41.95;98649.05;125629;1097;103001;-66